createdAt,value
2017-11-25T00:00:15.205Z,14.86
2017-11-25T00:00:55.734Z,14.89
2017-11-25T00:01:36.294Z,14.86
2017-11-25T00:02:16.861Z,14.94
2017-11-25T00:02:57.471Z,14.89
2017-11-25T00:03:38.073Z,14.94
2017-11-25T00:04:18.838Z,14.88
2017-11-25T00:04:59.450Z,14.83
2017-11-25T00:05:39.944Z,14.83
2017-11-25T00:06:20.736Z,14.91
2017-11-25T00:07:01.535Z,14.92
2017-11-25T00:07:42.070Z,14.8
2017-11-25T00:08:22.637Z,14.81
2017-11-25T00:09:03.274Z,14.86
2017-11-25T00:09:43.838Z,14.78
2017-11-25T00:10:24.484Z,14.81
2017-11-25T00:11:05.051Z,14.78
2017-11-25T00:11:45.929Z,14.77
2017-11-25T00:12:26.542Z,14.81
2017-11-25T00:13:07.639Z,14.86
2017-11-25T00:13:48.171Z,14.86
2017-11-25T00:14:28.855Z,14.95
2017-11-25T00:15:09.452Z,14.91
2017-11-25T00:15:50.159Z,14.92
2017-11-25T00:16:30.664Z,14.84
2017-11-25T00:17:11.333Z,14.83
2017-11-25T00:17:51.877Z,14.77
2017-11-25T00:18:32.440Z,14.81
2017-11-25T00:19:13.161Z,14.84
2017-11-25T00:19:53.750Z,14.86
2017-11-25T00:20:34.302Z,14.83
2017-11-25T00:21:14.825Z,14.86
2017-11-25T00:21:55.386Z,14.77
2017-11-25T00:22:35.934Z,14.73
2017-11-25T00:23:16.543Z,14.77
2017-11-25T00:23:56.985Z,14.73
2017-11-25T00:24:37.538Z,14.73
2017-11-25T00:25:18.064Z,14.72
2017-11-25T00:25:58.667Z,14.64
2017-11-25T00:26:39.235Z,14.73
2017-11-25T00:27:19.743Z,14.65
2017-11-25T00:28:00.292Z,14.77
2017-11-25T00:28:40.798Z,14.83
2017-11-25T00:29:21.334Z,14.73
2017-11-25T00:30:01.944Z,14.65
2017-11-25T00:30:42.431Z,14.73
2017-11-25T00:31:23.137Z,14.72
2017-11-25T00:32:03.751Z,14.75
2017-11-25T00:32:44.298Z,14.72
2017-11-25T00:33:24.841Z,14.72
2017-11-25T00:34:05.475Z,14.69
2017-11-25T00:34:46.163Z,14.69
2017-11-25T00:35:26.748Z,14.75
2017-11-25T00:36:07.209Z,14.72
2017-11-25T00:36:47.799Z,14.75
2017-11-25T00:37:28.290Z,14.78
2017-11-25T00:38:09.000Z,14.8
2017-11-25T00:38:49.568Z,14.77
2017-11-25T00:39:30.057Z,14.72
2017-11-25T00:40:10.584Z,14.73
2017-11-25T00:40:51.137Z,14.73
2017-11-25T00:41:31.715Z,14.77
2017-11-25T00:42:12.326Z,14.77
2017-11-25T00:42:52.926Z,14.77
2017-11-25T00:43:33.443Z,14.8
2017-11-25T00:44:13.974Z,14.77
2017-11-25T00:44:54.646Z,14.83
2017-11-25T00:45:35.194Z,14.83
2017-11-25T00:46:15.774Z,14.88
2017-11-25T00:46:56.384Z,14.86
2017-11-25T00:47:36.932Z,14.83
2017-11-25T00:48:17.518Z,14.78
2017-11-25T00:48:58.074Z,14.84
2017-11-25T00:49:38.619Z,14.88
2017-11-25T00:50:19.156Z,14.83
2017-11-25T00:50:59.851Z,14.83
2017-11-25T00:51:40.404Z,14.88
2017-11-25T00:52:20.940Z,14.88
2017-11-25T00:53:01.542Z,14.92
2017-11-25T00:53:42.060Z,14.88
2017-11-25T00:54:22.618Z,14.81
2017-11-25T00:55:03.158Z,14.86
2017-11-25T00:55:43.738Z,14.89
2017-11-25T00:56:24.327Z,14.88
2017-11-25T00:57:05.004Z,14.96
2017-11-25T00:57:45.608Z,14.98
2017-11-25T00:58:26.219Z,14.91
2017-11-25T00:59:06.740Z,14.99
2017-11-25T00:59:47.287Z,14.96
2017-11-25T01:00:27.852Z,15.02
2017-11-25T01:01:08.476Z,14.92
2017-11-25T01:01:48.971Z,14.96
2017-11-25T01:02:29.581Z,14.88
2017-11-25T01:03:10.164Z,14.88
2017-11-25T01:03:50.670Z,14.86
2017-11-25T01:04:31.361Z,14.84
2017-11-25T01:05:11.904Z,14.83
2017-11-25T01:05:52.412Z,14.77
2017-11-25T01:06:32.969Z,14.77
2017-11-25T01:07:13.530Z,14.77
2017-11-25T01:07:54.156Z,14.91
2017-11-25T01:08:34.693Z,14.89
2017-11-25T01:09:15.225Z,14.89
2017-11-25T01:09:55.903Z,14.96
2017-11-25T01:10:36.435Z,14.88
2017-11-25T01:11:16.989Z,15.01
2017-11-25T01:11:57.508Z,14.91
2017-11-25T01:12:38.036Z,15.03
2017-11-25T01:13:18.576Z,14.89
2017-11-25T01:13:59.210Z,14.96
2017-11-25T01:14:39.731Z,14.94
2017-11-25T01:15:20.244Z,15.02
2017-11-25T01:16:00.802Z,14.99
2017-11-25T01:16:41.379Z,14.94
2017-11-25T01:17:22.014Z,14.96
2017-11-25T01:18:02.645Z,14.89
2017-11-25T01:18:43.228Z,14.98
2017-11-25T01:19:23.843Z,14.89
2017-11-25T01:20:04.474Z,14.98
2017-11-25T01:20:45.098Z,14.91
2017-11-25T01:21:25.838Z,14.99
2017-11-25T01:22:06.457Z,14.98
2017-11-25T01:22:47.153Z,14.91
2017-11-25T01:23:27.895Z,15.01
2017-11-25T01:24:08.530Z,15.02
2017-11-25T01:24:49.108Z,14.91
2017-11-25T01:25:29.750Z,14.8
2017-11-25T01:26:10.407Z,14.69
2017-11-25T01:26:50.971Z,14.83
2017-11-25T01:27:31.616Z,14.83
2017-11-25T01:28:12.840Z,14.83
2017-11-25T01:28:53.632Z,14.7
2017-11-25T01:29:34.295Z,14.7
2017-11-25T01:30:14.887Z,14.72
2017-11-25T01:30:55.586Z,14.68
2017-11-25T01:31:36.176Z,14.78
2017-11-25T01:32:16.982Z,14.72
2017-11-25T01:32:57.546Z,14.8
2017-11-25T01:33:38.106Z,14.86
2017-11-25T01:34:18.746Z,14.78
2017-11-25T01:34:59.459Z,14.8
2017-11-25T01:35:40.052Z,14.77
2017-11-25T01:36:20.779Z,14.81
2017-11-25T01:37:01.375Z,14.73
2017-11-25T01:37:42.035Z,14.78
2017-11-25T01:38:22.755Z,14.77
2017-11-25T01:39:03.283Z,14.72
2017-11-25T01:39:43.853Z,14.69
2017-11-25T01:40:24.534Z,14.77
2017-11-25T01:41:05.103Z,14.62
2017-11-25T01:41:45.790Z,14.68
2017-11-25T01:42:26.297Z,14.68
2017-11-25T01:43:06.998Z,14.69
2017-11-25T01:43:47.614Z,14.77
2017-11-25T01:44:28.445Z,14.81
2017-11-25T01:45:09.244Z,14.73
2017-11-25T01:45:49.909Z,14.65
2017-11-25T01:46:30.456Z,14.57
2017-11-25T01:47:11.017Z,14.73
2017-11-25T01:47:51.575Z,14.72
2017-11-25T01:48:32.251Z,14.73
2017-11-25T01:49:12.850Z,14.72
2017-11-25T01:49:53.400Z,14.83
2017-11-25T01:50:34.006Z,14.8
2017-11-25T01:51:14.578Z,14.75
2017-11-25T01:51:55.126Z,14.8
2017-11-25T01:52:35.756Z,14.75
2017-11-25T01:53:16.299Z,14.64
2017-11-25T01:53:56.984Z,14.75
2017-11-25T01:54:37.747Z,14.72
2017-11-25T01:55:18.379Z,14.73
2017-11-25T01:55:58.936Z,14.72
2017-11-25T01:56:39.674Z,14.7
2017-11-25T01:57:20.230Z,14.81
2017-11-25T01:58:00.817Z,14.78
2017-11-25T01:58:41.464Z,14.62
2017-11-25T01:59:22.066Z,14.64
2017-11-25T02:00:02.702Z,14.55
2017-11-25T02:00:43.265Z,14.58
2017-11-25T02:01:23.902Z,14.65
2017-11-25T02:02:04.410Z,14.69
2017-11-25T02:02:45.060Z,14.65
2017-11-25T02:03:25.613Z,14.58
2017-11-25T02:04:06.218Z,14.65
2017-11-25T02:04:46.791Z,14.73
2017-11-25T02:05:27.453Z,14.75
2017-11-25T02:06:08.162Z,14.77
2017-11-25T02:06:48.694Z,14.81
2017-11-25T02:07:29.410Z,14.77
2017-11-25T02:08:10.005Z,14.81
2017-11-25T02:08:50.596Z,14.73
2017-11-25T02:09:31.209Z,14.77
2017-11-25T02:10:11.847Z,14.78
2017-11-25T02:10:52.514Z,14.75
2017-11-25T02:11:33.177Z,14.83
2017-11-25T02:12:13.679Z,14.84
2017-11-25T02:12:54.259Z,14.8
2017-11-25T02:13:34.895Z,14.83
2017-11-25T02:14:15.508Z,14.75
2017-11-25T02:14:56.067Z,14.75
2017-11-25T02:15:36.712Z,14.65
2017-11-25T02:16:17.339Z,14.75
2017-11-25T02:16:57.914Z,14.62
2017-11-25T02:17:38.577Z,14.68
2017-11-25T02:18:19.122Z,14.58
2017-11-25T02:18:59.878Z,14.58
2017-11-25T02:19:40.473Z,14.69
2017-11-25T02:20:21.109Z,14.7
2017-11-25T02:21:01.830Z,14.64
2017-11-25T02:21:42.357Z,14.69
2017-11-25T02:22:23.091Z,14.62
2017-11-25T02:23:03.715Z,14.58
2017-11-25T02:23:44.358Z,14.58
2017-11-25T02:24:25.203Z,14.55
2017-11-25T02:25:05.819Z,14.51
2017-11-25T02:25:46.405Z,14.43
2017-11-25T02:26:27.009Z,14.52
2017-11-25T02:27:07.640Z,14.5
2017-11-25T02:27:48.235Z,14.54
2017-11-25T02:28:28.814Z,14.64
2017-11-25T02:29:09.421Z,14.58
2017-11-25T02:29:50.104Z,14.61
2017-11-25T02:30:30.714Z,14.64
2017-11-25T02:31:11.336Z,14.58
2017-11-25T02:31:51.968Z,14.61
2017-11-25T02:32:32.558Z,14.7
2017-11-25T02:33:13.196Z,14.61
2017-11-25T02:33:53.860Z,14.57
2017-11-25T02:34:34.525Z,14.58
2017-11-25T02:35:15.113Z,14.55
2017-11-25T02:35:55.614Z,14.55
2017-11-25T02:36:36.260Z,14.62
2017-11-25T02:37:16.865Z,14.64
2017-11-25T02:37:57.483Z,14.62
2017-11-25T02:38:38.159Z,14.65
2017-11-25T02:39:18.772Z,14.7
2017-11-25T02:39:59.313Z,14.61
2017-11-25T02:40:39.990Z,14.68
2017-11-25T02:41:20.521Z,14.68
2017-11-25T02:42:01.193Z,14.73
2017-11-25T02:42:41.723Z,14.73
2017-11-25T02:43:22.406Z,14.69
2017-11-25T02:44:03.003Z,14.64
2017-11-25T02:44:43.609Z,14.64
2017-11-25T02:45:24.207Z,14.72
2017-11-25T02:46:04.795Z,14.75
2017-11-25T02:46:45.398Z,14.72
2017-11-25T02:47:26.030Z,14.73
2017-11-25T02:48:06.628Z,14.7
2017-11-25T02:48:47.168Z,14.68
2017-11-25T02:49:27.775Z,14.6
2017-11-25T02:50:08.404Z,14.62
2017-11-25T02:50:48.987Z,14.62
2017-11-25T02:51:29.797Z,14.62
2017-11-25T02:52:10.363Z,14.5
2017-11-25T02:52:50.927Z,14.58
2017-11-25T02:53:31.568Z,14.5
2017-11-25T02:54:12.182Z,14.51
2017-11-25T02:54:52.800Z,14.47
2017-11-25T02:55:33.380Z,14.47
2017-11-25T02:56:14.004Z,14.5
2017-11-25T02:56:54.587Z,14.6
2017-11-25T02:57:35.310Z,14.61
2017-11-25T02:58:16.158Z,14.57
2017-11-25T02:58:56.830Z,14.61
2017-11-25T02:59:37.417Z,14.64
2017-11-25T03:00:17.983Z,14.64
2017-11-25T03:00:58.742Z,14.57
2017-11-25T03:01:39.428Z,14.64
2017-11-25T03:02:19.925Z,14.62
2017-11-25T03:03:00.546Z,14.54
2017-11-25T03:03:41.231Z,14.45
2017-11-25T03:04:21.832Z,14.52
2017-11-25T03:05:02.430Z,14.5
2017-11-25T03:05:43.018Z,14.51
2017-11-25T03:06:23.556Z,14.54
2017-11-25T03:07:04.122Z,14.54
2017-11-25T03:07:44.716Z,14.54
2017-11-25T03:08:25.310Z,14.5
2017-11-25T03:09:05.846Z,14.55
2017-11-25T03:09:46.438Z,14.6
2017-11-25T03:10:27.056Z,14.51
2017-11-25T03:11:07.694Z,14.55
2017-11-25T03:11:48.245Z,14.45
2017-11-25T03:12:28.802Z,14.52
2017-11-25T03:13:09.459Z,14.6
2017-11-25T03:13:50.090Z,14.61
2017-11-25T03:14:30.652Z,14.64
2017-11-25T03:15:11.498Z,14.61
2017-11-25T03:15:52.075Z,14.58
2017-11-25T03:16:32.607Z,14.64
2017-11-25T03:17:13.153Z,14.64
2017-11-25T03:17:53.734Z,14.62
2017-11-25T03:18:34.315Z,14.62
2017-11-25T03:19:14.961Z,14.65
2017-11-25T03:19:55.541Z,14.62
2017-11-25T03:20:36.140Z,14.51
2017-11-25T03:21:16.734Z,14.52
2017-11-25T03:21:57.269Z,14.52
2017-11-25T03:22:37.943Z,14.5
2017-11-25T03:23:18.477Z,14.51
2017-11-25T03:23:59.150Z,14.45
2017-11-25T03:24:39.740Z,14.4
2017-11-25T03:25:20.297Z,14.37
2017-11-25T03:26:00.906Z,14.36
2017-11-25T03:26:41.437Z,14.37
2017-11-25T03:27:22.141Z,14.35
2017-11-25T03:28:02.730Z,14.43
2017-11-25T03:28:43.374Z,14.39
2017-11-25T03:29:23.922Z,14.43
2017-11-25T03:30:04.557Z,14.51
2017-11-25T03:30:45.135Z,14.42
2017-11-25T03:31:25.780Z,14.45
2017-11-25T03:32:06.421Z,14.47
2017-11-25T03:32:46.940Z,14.46
2017-11-25T03:33:28.502Z,14.4
2017-11-25T03:34:09.005Z,14.4
2017-11-25T03:34:49.668Z,14.5
2017-11-25T03:35:30.354Z,14.52
2017-11-25T03:36:11.132Z,14.55
2017-11-25T03:36:51.675Z,14.51
2017-11-25T03:37:32.369Z,14.5
2017-11-25T03:38:12.893Z,14.4
2017-11-25T03:38:53.502Z,14.43
2017-11-25T03:39:34.150Z,14.45
2017-11-25T03:40:14.719Z,14.45
2017-11-25T03:40:55.326Z,14.35
2017-11-25T03:41:35.941Z,14.35
2017-11-25T03:42:16.532Z,14.51
2017-11-25T03:42:57.354Z,14.37
2017-11-25T03:43:38.011Z,14.46
2017-11-25T03:44:18.575Z,14.54
2017-11-25T03:44:59.301Z,14.5
2017-11-25T03:45:39.874Z,14.6
2017-11-25T03:46:20.498Z,14.46
2017-11-25T03:47:01.140Z,14.47
2017-11-25T03:47:42.020Z,14.54
2017-11-25T03:48:22.327Z,14.45
2017-11-25T03:49:02.992Z,14.42
2017-11-25T03:49:43.623Z,14.36
2017-11-25T03:50:24.187Z,14.36
2017-11-25T03:51:04.750Z,14.37
2017-11-25T03:51:45.338Z,14.36
2017-11-25T03:52:25.971Z,14.37
2017-11-25T03:53:06.626Z,14.33
2017-11-25T03:53:47.177Z,14.33
2017-11-25T03:54:27.927Z,14.33
2017-11-25T03:55:08.387Z,14.24
2017-11-25T03:55:48.973Z,14.28
2017-11-25T03:56:29.536Z,14.25
2017-11-25T03:57:10.220Z,14.25
2017-11-25T03:57:50.835Z,14.29
2017-11-25T03:58:31.511Z,14.18
2017-11-25T03:59:12.259Z,14.22
2017-11-25T03:59:52.894Z,14.15
2017-11-25T04:00:33.554Z,14.15
2017-11-25T04:01:14.134Z,14.15
2017-11-25T04:01:54.728Z,14.2
2017-11-25T04:02:35.342Z,14.18
2017-11-25T04:03:15.971Z,14.18
2017-11-25T04:03:56.644Z,14.25
2017-11-25T04:04:37.194Z,14.14
2017-11-25T04:05:17.837Z,14.22
2017-11-25T04:05:58.650Z,14.27
2017-11-25T04:06:39.019Z,14.15
2017-11-25T04:07:19.608Z,14.15
2017-11-25T04:08:00.265Z,14.22
2017-11-25T04:08:40.849Z,14.29
2017-11-25T04:09:21.430Z,14.21
2017-11-25T04:10:02.070Z,14.17
2017-11-25T04:10:42.618Z,14.17
2017-11-25T04:11:23.191Z,14.29
2017-11-25T04:12:03.931Z,14.29
2017-11-25T04:12:44.480Z,14.24
2017-11-25T04:13:25.132Z,14.25
2017-11-25T04:14:05.808Z,14.33
2017-11-25T04:14:46.443Z,14.27
2017-11-25T04:15:27.188Z,14.24
2017-11-25T04:16:07.824Z,14.21
2017-11-25T04:16:48.409Z,14.2
2017-11-25T04:17:29.052Z,14.18
2017-11-25T04:18:09.788Z,14.22
2017-11-25T04:18:50.278Z,14.2
2017-11-25T04:19:30.899Z,14.2
2017-11-25T04:20:11.607Z,14.33
2017-11-25T04:20:52.092Z,14.27
2017-11-25T04:21:32.693Z,14.29
2017-11-25T04:22:13.315Z,14.27
2017-11-25T04:22:53.880Z,14.32
2017-11-25T04:23:34.570Z,14.27
2017-11-25T04:24:15.142Z,14.32
2017-11-25T04:24:55.643Z,14.29
2017-11-25T04:25:36.298Z,14.33
2017-11-25T04:26:16.900Z,14.25
2017-11-25T04:26:57.513Z,14.24
2017-11-25T04:27:38.126Z,14.25
2017-11-25T04:28:18.605Z,14.28
2017-11-25T04:28:59.246Z,14.35
2017-11-25T04:29:39.917Z,14.33
2017-11-25T04:30:20.983Z,14.35
2017-11-25T04:31:01.305Z,14.29
2017-11-25T04:31:41.936Z,14.32
2017-11-25T04:32:22.484Z,14.28
2017-11-25T04:33:03.081Z,14.24
2017-11-25T04:33:43.647Z,14.32
2017-11-25T04:34:24.390Z,14.18
2017-11-25T04:35:05.094Z,14.24
2017-11-25T04:35:45.696Z,14.17
2017-11-25T04:36:26.244Z,14.09
2017-11-25T04:37:06.805Z,14.18
2017-11-25T04:37:47.367Z,14.24
2017-11-25T04:38:28.051Z,14.22
2017-11-25T04:39:08.544Z,14.09
2017-11-25T04:39:49.151Z,14.09
2017-11-25T04:40:29.807Z,14.07
2017-11-25T04:41:10.416Z,14.04
2017-11-25T04:41:51.056Z,14.04
2017-11-25T04:42:31.654Z,14.17
2017-11-25T04:43:12.213Z,14.21
2017-11-25T04:43:52.823Z,14.09
2017-11-25T04:44:33.344Z,13.92
2017-11-25T04:45:13.968Z,13.95
2017-11-25T04:45:54.481Z,13.92
2017-11-25T04:46:35.385Z,13.85
2017-11-25T04:47:15.992Z,13.87
2017-11-25T04:47:56.584Z,13.87
2017-11-25T04:48:37.244Z,13.78
2017-11-25T04:49:17.843Z,13.66
2017-11-25T04:49:58.509Z,13.7
2017-11-25T04:50:39.112Z,13.67
2017-11-25T04:51:19.696Z,13.71
2017-11-25T04:52:00.407Z,13.73
2017-11-25T04:52:41.013Z,13.62
2017-11-25T04:53:21.625Z,13.6
2017-11-25T04:54:02.815Z,13.71
2017-11-25T04:54:43.557Z,13.67
2017-11-25T04:55:24.132Z,13.78
2017-11-25T04:56:04.676Z,13.67
2017-11-25T04:56:45.349Z,13.63
2017-11-25T04:57:25.973Z,13.59
2017-11-25T04:58:06.622Z,13.59
2017-11-25T04:58:47.192Z,13.52
2017-11-25T04:59:27.801Z,13.59
2017-11-25T05:00:08.458Z,13.62
2017-11-25T05:00:49.005Z,13.59
2017-11-25T05:01:29.619Z,13.67
2017-11-25T05:02:10.218Z,13.6
2017-11-25T05:02:50.828Z,13.63
2017-11-25T05:03:31.417Z,13.57
2017-11-25T05:04:11.976Z,13.59
2017-11-25T05:04:52.553Z,13.59
2017-11-25T05:05:33.243Z,13.55
2017-11-25T05:06:13.745Z,13.52
2017-11-25T05:06:54.516Z,13.62
2017-11-25T05:07:35.128Z,13.52
2017-11-25T05:08:15.693Z,13.57
2017-11-25T05:08:56.404Z,13.57
2017-11-25T05:09:36.991Z,13.55
2017-11-25T05:10:17.615Z,13.6
2017-11-25T05:10:58.133Z,13.57
2017-11-25T05:11:38.828Z,13.55
2017-11-25T05:12:19.447Z,13.57
2017-11-25T05:13:00.111Z,13.6
2017-11-25T05:13:40.653Z,13.6
2017-11-25T05:14:21.281Z,13.66
2017-11-25T05:15:02.005Z,13.67
2017-11-25T05:15:42.565Z,13.54
2017-11-25T05:16:23.202Z,13.55
2017-11-25T05:17:03.909Z,13.55
2017-11-25T05:17:44.584Z,13.52
2017-11-25T05:18:25.145Z,13.55
2017-11-25T05:19:05.696Z,13.54
2017-11-25T05:19:46.408Z,13.55
2017-11-25T05:20:27.389Z,13.45
2017-11-25T05:21:08.021Z,13.57
2017-11-25T05:21:48.629Z,13.59
2017-11-25T05:22:29.141Z,13.57
2017-11-25T05:23:09.889Z,13.54
2017-11-25T05:23:50.538Z,13.57
2017-11-25T05:24:31.104Z,13.49
2017-11-25T05:25:11.813Z,13.54
2017-11-25T05:25:52.597Z,13.54
2017-11-25T05:26:33.161Z,13.63
2017-11-25T05:27:13.739Z,13.52
2017-11-25T05:27:54.412Z,13.59
2017-11-25T05:28:35.083Z,13.55
2017-11-25T05:29:15.695Z,13.55
2017-11-25T05:29:56.292Z,13.62
2017-11-25T05:30:36.972Z,13.6
2017-11-25T05:31:17.592Z,13.67
2017-11-25T05:31:58.102Z,13.6
2017-11-25T05:32:38.775Z,13.62
2017-11-25T05:33:19.555Z,13.59
2017-11-25T05:34:00.223Z,13.54
2017-11-25T05:34:41.171Z,13.62
2017-11-25T05:35:22.061Z,13.59
2017-11-25T05:36:02.717Z,13.59
2017-11-25T05:36:43.366Z,13.55
2017-11-25T05:37:23.980Z,13.59
2017-11-25T05:38:04.553Z,13.55
2017-11-25T05:38:45.722Z,13.44
2017-11-25T05:39:25.697Z,13.42
2017-11-25T05:40:06.326Z,13.45
2017-11-25T05:40:46.932Z,13.2
2017-11-25T05:41:27.803Z,13.17
2017-11-25T05:42:08.399Z,13.17
2017-11-25T05:42:48.961Z,13.29
2017-11-25T05:43:29.553Z,13.28
2017-11-25T05:44:10.194Z,13.32
2017-11-25T05:44:50.824Z,13.38
2017-11-25T05:45:31.984Z,13.36
2017-11-25T05:46:12.800Z,13.52
2017-11-25T05:46:53.392Z,13.44
2017-11-25T05:47:34.096Z,13.45
2017-11-25T05:48:14.692Z,13.51
2017-11-25T05:48:55.319Z,13.48
2017-11-25T05:49:35.881Z,13.41
2017-11-25T05:50:16.497Z,13.44
2017-11-25T05:50:57.178Z,13.45
2017-11-25T05:51:37.853Z,13.33
2017-11-25T05:52:18.507Z,13.39
2017-11-25T05:52:59.161Z,13.28
2017-11-25T05:53:39.981Z,13.36
2017-11-25T05:54:20.552Z,13.32
2017-11-25T05:55:01.115Z,13.33
2017-11-25T05:55:41.789Z,13.3
2017-11-25T05:56:22.328Z,13.28
2017-11-25T05:57:02.978Z,13.22
2017-11-25T05:57:43.710Z,13.2
2017-11-25T05:58:24.355Z,13.19
2017-11-25T05:59:04.954Z,13.15
2017-11-25T05:59:45.526Z,13.33
2017-11-25T06:00:26.211Z,13.25
2017-11-25T06:01:06.886Z,13.3
2017-11-25T06:01:47.471Z,13.26
2017-11-25T06:02:28.018Z,13.33
2017-11-25T06:03:08.710Z,13.2
2017-11-25T06:03:49.353Z,13.26
2017-11-25T06:04:29.956Z,13.29
2017-11-25T06:05:10.559Z,13.22
2017-11-25T06:05:51.074Z,13.22
2017-11-25T06:06:31.719Z,13.23
2017-11-25T06:07:12.287Z,13.22
2017-11-25T06:07:52.946Z,13.28
2017-11-25T06:08:33.588Z,13.3
2017-11-25T06:09:14.126Z,13.25
2017-11-25T06:09:54.780Z,13.25
2017-11-25T06:10:35.415Z,13.19
2017-11-25T06:11:16.032Z,13.22
2017-11-25T06:11:56.651Z,13.12
2017-11-25T06:12:37.244Z,13.25
2017-11-25T06:13:17.847Z,13.2
2017-11-25T06:13:59.636Z,13.25
2017-11-25T06:14:39.368Z,13.26
2017-11-25T06:15:19.999Z,13.33
2017-11-25T06:16:00.978Z,13.2
2017-11-25T06:16:41.260Z,13.23
2017-11-25T06:17:21.861Z,13.3
2017-11-25T06:18:02.459Z,13.23
2017-11-25T06:18:43.024Z,13.11
2017-11-25T06:19:23.605Z,13.22
2017-11-25T06:20:04.854Z,13.38
2017-11-25T06:20:45.473Z,13.23
2017-11-25T06:21:26.123Z,13.19
2017-11-25T06:22:06.683Z,13.23
2017-11-25T06:22:47.540Z,13.19
2017-11-25T06:23:28.172Z,13.17
2017-11-25T06:24:08.746Z,13.22
2017-11-25T06:24:49.460Z,13.29
2017-11-25T06:25:31.285Z,13.28
2017-11-25T06:26:11.798Z,13.32
2017-11-25T06:26:52.316Z,13.36
2017-11-25T06:27:33.319Z,13.33
2017-11-25T06:28:13.897Z,13.38
2017-11-25T06:28:54.626Z,13.44
2017-11-25T06:29:35.691Z,13.45
2017-11-25T06:30:16.355Z,13.49
2017-11-25T06:30:56.820Z,13.36
2017-11-25T06:31:37.452Z,13.41
2017-11-25T06:32:18.061Z,13.46
2017-11-25T06:32:59.100Z,13.49
2017-11-25T06:33:39.571Z,13.45
2017-11-25T06:34:20.420Z,13.45
2017-11-25T06:35:01.031Z,13.44
2017-11-25T06:35:41.601Z,13.49
2017-11-25T06:36:22.194Z,13.46
2017-11-25T06:37:03.028Z,13.45
2017-11-25T06:37:43.625Z,13.41
2017-11-25T06:38:24.218Z,13.46
2017-11-25T06:39:04.886Z,13.45
2017-11-25T06:39:45.501Z,13.46
2017-11-25T06:40:26.015Z,13.49
2017-11-25T06:41:06.616Z,13.41
2017-11-25T06:41:47.888Z,13.45
2017-11-25T06:42:28.488Z,13.55
2017-11-25T06:43:09.943Z,13.54
2017-11-25T06:43:51.066Z,13.59
2017-11-25T06:44:31.671Z,13.46
2017-11-25T06:45:12.333Z,13.57
2017-11-25T06:45:52.950Z,13.51
2017-11-25T06:46:33.628Z,13.54
2017-11-25T06:47:14.348Z,13.49
2017-11-25T06:47:55.010Z,13.55
2017-11-25T06:48:35.647Z,13.55
2017-11-25T06:49:16.859Z,13.55
2017-11-25T06:49:57.573Z,13.42
2017-11-25T06:50:38.328Z,13.57
2017-11-25T06:51:18.881Z,13.51
2017-11-25T06:51:59.452Z,13.42
2017-11-25T06:52:40.085Z,13.41
2017-11-25T06:53:20.671Z,13.28
2017-11-25T06:54:01.507Z,13.32
2017-11-25T06:54:42.290Z,13.11
2017-11-25T06:55:22.938Z,13.12
2017-11-25T06:56:03.836Z,13.17
2017-11-25T06:56:44.723Z,13.12
2017-11-25T06:57:25.212Z,13
2017-11-25T06:58:05.974Z,13.05
2017-11-25T06:58:46.663Z,13.01
2017-11-25T06:59:27.258Z,13.08
2017-11-25T07:00:08.653Z,13.01
2017-11-25T07:00:48.508Z,13.03
2017-11-25T07:01:29.746Z,13.14
2017-11-25T07:02:10.378Z,13.07
2017-11-25T07:02:51.102Z,13.05
2017-11-25T07:03:31.948Z,13.01
2017-11-25T07:04:12.340Z,13
2017-11-25T07:04:52.939Z,13.01
2017-11-25T07:05:33.898Z,13
2017-11-25T07:06:14.582Z,13
2017-11-25T07:06:55.172Z,13.01
2017-11-25T07:07:35.771Z,12.97
2017-11-25T07:08:16.557Z,12.96
2017-11-25T07:08:57.126Z,12.96
2017-11-25T07:09:37.804Z,12.97
2017-11-25T07:10:19.574Z,12.97
2017-11-25T07:11:00.097Z,12.92
2017-11-25T07:11:40.668Z,13.03
2017-11-25T07:12:22.096Z,13.05
2017-11-25T07:13:03.224Z,13.04
2017-11-25T07:13:44.188Z,13.03
2017-11-25T07:14:24.810Z,13.04
2017-11-25T07:15:05.373Z,12.95
2017-11-25T07:15:46.131Z,13.04
2017-11-25T07:16:26.879Z,12.96
2017-11-25T07:17:07.368Z,13.1
2017-11-25T07:17:48.307Z,13.05
2017-11-25T07:18:28.904Z,13.07
2017-11-25T07:19:09.538Z,13.08
2017-11-25T07:19:51.109Z,13.08
2017-11-25T07:20:31.993Z,13.12
2017-11-25T07:21:12.605Z,13.1
2017-11-25T07:21:53.350Z,12.97
2017-11-25T07:22:35.534Z,12.96
2017-11-25T07:23:16.121Z,13.04
2017-11-25T07:23:57.045Z,13.07
2017-11-25T07:24:37.629Z,13.1
2017-11-25T07:25:18.269Z,13.11
2017-11-25T07:26:00.363Z,13.14
2017-11-25T07:26:41.633Z,13.08
2017-11-25T07:27:22.437Z,13.11
2017-11-25T07:28:04.045Z,13.11
2017-11-25T07:28:44.680Z,13.08
2017-11-25T07:29:25.429Z,13.11
2017-11-25T07:30:05.946Z,13.1
2017-11-25T07:30:46.696Z,13.05
2017-11-25T07:31:27.438Z,13.1
2017-11-25T07:32:07.998Z,13.08
2017-11-25T07:32:48.628Z,13
2017-11-25T07:33:29.247Z,13.14
2017-11-25T07:34:10.096Z,12.96
2017-11-25T07:34:50.725Z,13
2017-11-25T07:35:31.340Z,12.96
2017-11-25T07:36:11.987Z,12.96
2017-11-25T07:36:55.571Z,13
2017-11-25T07:37:36.339Z,12.97
2017-11-25T07:38:17.052Z,13.01
2017-11-25T07:38:57.793Z,13.05
2017-11-25T07:39:38.366Z,12.97
2017-11-25T07:40:19.665Z,12.87
2017-11-25T07:41:00.411Z,12.92
2017-11-25T07:41:41.001Z,12.78
2017-11-25T07:42:21.684Z,12.7
2017-11-25T07:43:02.697Z,12.71
2017-11-25T07:43:44.179Z,12.75
2017-11-25T07:44:24.276Z,12.72
2017-11-25T07:45:05.006Z,12.78
2017-11-25T07:45:45.568Z,12.75
2017-11-25T07:46:26.226Z,12.85
2017-11-25T07:47:09.816Z,12.77
2017-11-25T07:47:53.007Z,12.85
2017-11-25T07:48:33.606Z,12.72
2017-11-25T07:49:14.272Z,12.75
2017-11-25T07:49:55.509Z,12.74
2017-11-25T07:50:36.539Z,12.77
2017-11-25T07:51:17.236Z,12.89
2017-11-25T07:51:57.919Z,12.79
2017-11-25T07:52:38.493Z,12.89
2017-11-25T07:53:19.171Z,12.9
2017-11-25T07:53:59.800Z,12.87
2017-11-25T07:54:40.496Z,12.77
2017-11-25T07:55:21.078Z,12.72
2017-11-25T07:56:01.763Z,12.7
2017-11-25T07:56:42.359Z,12.83
2017-11-25T07:57:23.830Z,12.72
2017-11-25T07:58:04.390Z,12.7
2017-11-25T07:58:45.060Z,12.71
2017-11-25T07:59:25.667Z,12.67
2017-11-25T08:00:06.247Z,12.54
2017-11-25T08:00:46.779Z,12.67
2017-11-25T08:01:27.380Z,12.67
2017-11-25T08:02:08.010Z,12.7
2017-11-25T08:02:51.971Z,12.71
2017-11-25T08:03:33.287Z,12.75
2017-11-25T08:04:13.646Z,12.85
2017-11-25T08:04:54.302Z,12.85
2017-11-25T08:05:35.885Z,12.79
2017-11-25T08:06:16.520Z,12.79
2017-11-25T08:06:57.640Z,12.96
2017-11-25T08:07:38.486Z,12.93
2017-11-25T08:08:19.651Z,13
2017-11-25T08:09:00.418Z,13.04
2017-11-25T08:09:41.023Z,12.97
2017-11-25T08:10:22.751Z,12.97
2017-11-25T08:11:02.529Z,13.01
2017-11-25T08:11:43.136Z,12.93
2017-11-25T08:12:23.623Z,12.95
2017-11-25T08:13:04.168Z,12.95
2017-11-25T08:13:45.165Z,12.95
2017-11-25T08:14:25.945Z,12.96
2017-11-25T08:15:06.564Z,12.96
2017-11-25T08:15:47.154Z,13.04
2017-11-25T08:16:27.729Z,13.03
2017-11-25T08:20:53.970Z,12.95
2017-11-25T08:21:34.856Z,13.03
2017-11-25T08:22:18.753Z,13.1
2017-11-25T08:22:59.899Z,13.11
2017-11-25T08:23:40.457Z,13.07
2017-11-25T08:24:21.450Z,13.07
2017-11-25T08:25:04.632Z,13.08
2017-11-25T08:25:46.402Z,13.05
2017-11-25T08:26:29.566Z,13.1
2017-11-25T08:27:19.528Z,13.1
2017-11-25T08:28:04.472Z,13.14
2017-11-25T08:28:45.199Z,12.97
2017-11-25T08:29:28.788Z,13.1
2017-11-25T08:30:09.552Z,13.11
2017-11-25T08:30:50.613Z,13.12
2017-11-25T08:31:31.500Z,13.19
2017-11-25T08:32:11.957Z,13.15
2017-11-25T08:32:52.834Z,13.08
2017-11-25T08:33:33.521Z,13.12
2017-11-25T08:34:15.077Z,13.2
2017-11-25T08:34:57.148Z,13.12
2017-11-25T08:35:37.720Z,13.23
2017-11-25T08:36:18.917Z,13.19
2017-11-25T08:36:59.858Z,13.28
2017-11-25T08:37:40.566Z,13.17
2017-11-25T08:38:21.644Z,13.2
2017-11-25T08:39:02.421Z,13.08
2017-11-25T08:39:43.088Z,13
2017-11-25T08:40:23.541Z,12.96
2017-11-25T08:41:04.181Z,13.07
2017-11-25T08:41:45.340Z,12.82
2017-11-25T08:42:31.233Z,12.79
2017-11-25T08:43:11.839Z,12.9
2017-11-25T08:43:52.593Z,12.97
2017-11-25T08:44:33.354Z,12.96
2017-11-25T08:45:13.789Z,13.08
2017-11-25T08:45:55.599Z,13.11
2017-11-25T08:46:36.759Z,13.1
2017-11-25T08:47:17.344Z,13.12
2017-11-25T08:50:50.026Z,13
2017-11-25T08:51:31.061Z,12.87
2017-11-25T08:52:11.529Z,12.87
2017-11-25T08:52:52.192Z,12.95
2017-11-25T08:53:33.009Z,12.82